Time;durP1;ratioP1;P1;durP2;ratioP2;P2;SDS_P1;SDS_P2;PMS_P1;PMS_P2;Temp;Humidity;BMP_temperature;BMP_pressure;BME280_temperature;BME280_humidity;BME280_pressure;Samples;Min_cycle;Max_cycle;Signal;HPM_P1;HPM_P2
2024/01/19 00:00:08;;;;;;;13.90;7.78;;;;;;;7.96;95.39;94048.38;5087389;28;20036;-92
2024/01/19 00:02:33;;;;;;;15.32;8.32;;;;;;;8.73;94.82;94178.41;5087498;28;20058;-92
2024/01/19 00:04:59;;;;;;;14.05;8.18;;;;;;;7.91;95.00;94048.47;5087588;28;20109;-93
2024/01/19 00:07:24;;;;;;;14.02;8.90;;;;;;;7.64;94.05;93996.25;5105426;28;20113;-92
2024/01/19 00:09:50;;;;;;;18.52;9.30;;;;;;;8.52;93.91;94149.63;5104303;28;20060;-92
2024/01/19 00:12:17;;;;;;;18.98;10.32;;;;;;;7.77;94.71;94032.53;5086363;28;20060;-93
2024/01/19 00:14:42;;;;;;;17.58;10.32;;;;;;;7.70;94.48;94008.34;5087609;28;20040;-91
2024/01/19 00:17:08;;;;;;;21.73;11.20;;;;;;;6.12;93.81;93774.00;5086807;28;20040;-91
2024/01/19 00:19:33;;;;;;;22.20;10.63;;;;;;;6.93;94.60;93950.44;5087278;28;20055;-91
2024/01/19 00:21:59;;;;;;;20.17;9.65;;;;;;;7.63;96.12;94066.72;5095922;28;20039;-92
2024/01/19 00:24:26;;;;;;;17.25;9.80;;;;;;;8.52;96.52;94204.34;5098897;28;20081;-92
2024/01/19 00:26:54;;;;;;;17.98;8.88;;;;;;;7.72;96.38;94075.59;5098689;28;20043;-91
2024/01/19 00:29:19;;;;;;;21.95;9.50;;;;;;;7.95;95.73;94100.41;5084914;28;20086;-93
2024/01/19 00:31:46;;;;;;;16.95;8.30;;;;;;;6.51;95.31;93881.81;5102069;28;20035;-90
2024/01/19 00:34:16;;;;;;;16.27;7.53;;;;;;;7.15;95.11;93986.03;5095569;28;20044;-90
2024/01/19 00:36:42;;;;;;;18.23;8.55;;;;;;;8.63;94.70;94203.13;5082266;28;20056;-91
2024/01/19 00:39:07;;;;;;;12.27;8.30;;;;;;;8.69;94.82;94193.28;5111748;28;20032;-91
2024/01/19 00:41:33;;;;;;;16.63;8.05;;;;;;;8.80;94.75;94213.22;5101279;28;20036;-91
2024/01/19 00:43:59;;;;;;;17.10;7.53;;;;;;;8.76;94.78;94207.72;5081742;28;20024;-91
2024/01/19 00:46:25;;;;;;;14.68;7.82;;;;;;;6.53;95.07;93882.34;5093767;28;20488;-91
2024/01/19 00:48:51;;;;;;;16.30;8.38;;;;;;;6.57;95.28;93878.06;5085073;28;20032;-92
2024/01/19 00:51:17;;;;;;;20.13;8.85;;;;;;;8.72;95.01;94209.34;5106160;28;20051;-92
2024/01/19 00:53:44;;;;;;;19.45;8.80;;;;;;;7.37;95.68;94025.88;5086831;28;20043;-92
2024/01/19 00:56:09;;;;;;;14.50;8.43;;;;;;;8.18;95.45;94117.28;5098452;28;20047;-91
2024/01/19 00:58:40;;;;;;;16.65;8.38;;;;;;;8.00;95.89;94108.28;5086635;28;20043;-92
2024/01/19 01:01:06;;;;;;;29.90;9.68;;;;;;;8.16;95.60;94118.66;5110156;28;20028;-92
2024/01/19 01:03:31;;;;;;;16.20;8.32;;;;;;;7.89;95.32;94098.09;5106246;28;20100;-88
2024/01/19 01:06:00;;;;;;;13.50;7.53;;;;;;;8.19;95.66;94120.72;5097938;28;20103;-88
2024/01/19 01:08:27;;;;;;;12.75;7.75;;;;;;;8.39;94.89;94168.81;5108664;28;20044;-89
2024/01/19 01:10:54;;;;;;;16.63;9.40;;;;;;;7.81;95.55;94082.88;5095394;28;20040;-88
2024/01/19 01:13:20;;;;;;;17.92;8.60;;;;;;;8.65;96.29;94210.75;5110003;28;20035;-91
2024/01/19 01:15:46;;;;;;;12.43;7.50;;;;;;;8.56;95.41;94213.25;5084349;28;20028;-91
2024/01/19 01:18:12;;;;;;;17.20;8.32;;;;;;;7.81;96.13;94118.00;5086354;28;20624;-91
2024/01/19 01:20:38;;;;;;;20.65;8.82;;;;;;;7.43;96.39;94051.13;5093198;28;20036;-89
2024/01/19 01:23:03;;;;;;;18.63;9.48;;;;;;;8.51;96.88;94202.75;5096955;28;20035;-89
2024/01/19 01:25:30;;;;;;;18.88;9.07;;;;;;;7.39;96.61;94039.59;5075521;28;20094;-90
2024/01/19 01:27:56;;;;;;;18.33;8.43;;;;;;;7.47;96.86;94035.53;5097073;28;20093;-91
2024/01/19 01:30:22;;;;;;;16.55;8.73;;;;;;;8.62;96.71;94214.00;5083239;28;20048;-91
2024/01/19 01:32:47;;;;;;;19.83;10.00;;;;;;;8.13;95.55;94133.19;5099132;28;20062;-90
2024/01/19 01:35:13;;;;;;;17.40;9.38;;;;;;;7.92;95.85;94076.44;5106613;28;20073;-90
2024/01/19 01:37:39;;;;;;;20.30;8.77;;;;;;;7.51;95.37;94010.94;5115126;28;20058;-89
2024/01/19 01:40:05;;;;;;;17.10;8.73;;;;;;;7.98;94.98;94088.50;5097154;28;20112;-91
2024/01/19 01:42:31;;;;;;;16.45;8.82;;;;;;;8.70;94.73;94206.19;5102435;28;20088;-91
2024/01/19 01:44:56;;;;;;;19.80;9.30;;;;;;;8.38;95.44;94172.53;5106369;28;20040;-91
2024/01/19 01:47:22;;;;;;;15.48;8.43;;;;;;;6.99;94.99;93945.88;5136377;22;20055;-88
2024/01/19 01:49:48;;;;;;;17.33;8.77;;;;;;;8.62;95.23;94185.69;5105074;28;20459;-87
2024/01/19 01:52:13;;;;;;;16.88;9.57;;;;;;;8.54;94.61;94178.41;5119123;28;20044;-87
2024/01/19 01:54:39;;;;;;;17.48;8.80;;;;;;;6.50;94.61;93881.03;5101760;28;20063;-87
2024/01/19 01:57:05;;;;;;;18.10;9.25;;;;;;;8.49;94.61;94187.19;5100087;28;20040;-86
2024/01/19 01:59:31;;;;;;;13.55;8.80;;;;;;;8.64;93.93;94204.69;5117740;28;20040;-88
2024/01/19 02:01:57;;;;;;;16.40;8.40;;;;;;;8.25;94.18;94141.47;5116399;28;20195;-87
2024/01/19 02:04:24;;;;;;;18.75;9.57;;;;;;;7.28;94.17;93982.72;5114634;28;20047;-87
2024/01/19 02:06:49;;;;;;;14.38;7.88;;;;;;;8.58;93.81;94197.13;5089795;28;20082;-84
2024/01/19 02:09:16;;;;;;;22.08;8.75;;;;;;;7.65;94.27;94059.31;5100967;28;20068;-85
2024/01/19 02:11:42;;;;;;;17.60;8.40;;;;;;;8.60;94.66;94193.13;5085971;28;20056;-84
2024/01/19 02:14:09;;;;;;;22.10;9.13;;;;;;;8.60;94.30;94185.19;5078035;28;20032;-84
2024/01/19 02:16:35;;;;;;;20.98;9.18;;;;;;;7.02;94.08;93942.66;5079186;28;20094;-82
2024/01/19 02:19:00;;;;;;;18.67;8.90;;;;;;;7.49;93.47;94023.63;5078396;28;20044;-82
2024/01/19 02:21:26;;;;;;;15.75;8.48;;;;;;;8.00;93.58;94112.78;5098226;28;20044;-82
2024/01/19 02:24:15;;;;;;;18.90;8.73;;;;;;;8.61;92.89;94217.69;5098404;28;20036;-87
2024/01/19 02:26:41;;;;;;;16.42;7.00;;;;;;;8.60;93.55;94235.41;5095942;28;20042;-86
2024/01/19 02:29:07;;;;;;;13.82;7.45;;;;;;;8.08;93.48;94155.19;5102727;28;20076;-87
2024/01/19 02:31:33;;;;;;;15.13;8.23;;;;;;;8.22;93.15;94180.91;5088174;28;20036;-88
2024/01/19 02:33:58;;;;;;;12.90;7.55;;;;;;;8.48;93.52;94213.88;5090561;28;20050;-88
2024/01/19 02:36:24;;;;;;;18.17;9.88;;;;;;;6.67;92.88;93950.94;5104601;28;20055;-87
2024/01/19 02:38:50;;;;;;;17.65;9.65;;;;;;;7.33;93.20;94052.00;5109164;28;20035;-88
2024/01/19 02:41:15;;;;;;;20.02;10.02;;;;;;;8.54;92.93;94244.47;5098214;28;20036;-87
2024/01/19 02:43:41;;;;;;;16.50;10.00;;;;;;;8.23;92.78;94208.88;5114929;28;20028;-88
2024/01/19 02:46:08;;;;;;;17.55;10.10;;;;;;;7.70;93.34;94162.16;5108818;28;20353;-82
2024/01/19 02:48:33;;;;;;;22.92;11.88;;;;;;;8.21;93.60;94227.66;5098178;28;20040;-83
2024/01/19 02:50:59;;;;;;;21.20;10.98;;;;;;;8.17;93.67;94245.13;5089069;28;20066;-82
2024/01/19 02:53:24;;;;;;;19.92;11.65;;;;;;;7.68;94.59;94190.72;5101780;28;20523;-82
2024/01/19 02:55:50;;;;;;;20.08;10.82;;;;;;;6.55;94.70;94015.34;5107568;28;20415;-82
2024/01/19 02:58:16;;;;;;;18.40;11.27;;;;;;;7.44;94.33;94152.16;5105837;28;20158;-83
2024/01/19 03:00:41;;;;;;;20.95;10.55;;;;;;;8.18;93.80;94256.47;5080569;28;20035;-84
2024/01/19 03:03:07;;;;;;;23.10;11.15;;;;;;;8.09;93.81;94240.44;5079423;28;20107;-84
2024/01/19 03:05:32;;;;;;;21.38;11.13;;;;;;;7.20;94.02;94091.44;5097211;28;20055;-82
2024/01/19 03:07:58;;;;;;;18.45;10.85;;;;;;;8.26;93.54;94256.63;5080023;28;20040;-82
2024/01/19 03:10:24;;;;;;;18.02;10.27;;;;;;;8.11;93.25;94251.53;5078225;28;20048;-83
2024/01/19 03:12:49;;;;;;;17.13;9.88;;;;;;;8.15;93.64;94257.84;5087630;28;20150;-83
2024/01/19 03:15:15;;;;;;;20.02;9.88;;;;;;;8.19;93.64;94260.69;5077776;28;20040;-84
2024/01/19 03:17:40;;;;;;;15.77;9.52;;;;;;;8.02;93.08;94232.84;5095738;28;20044;-82
2024/01/19 03:20:07;;;;;;;16.45;8.98;;;;;;;7.28;92.22;94115.38;5077520;28;20035;-82
2024/01/19 03:22:32;;;;;;;15.07;9.23;;;;;;;8.14;92.11;94246.47;5089133;28;20032;-83
2024/01/19 03:24:58;;;;;;;20.95;8.80;;;;;;;8.17;92.25;94254.88;5083926;28;20373;-82
2024/01/19 03:27:23;;;;;;;14.43;8.45;;;;;;;8.00;91.67;94223.66;5076705;28;20134;-83
2024/01/19 03:29:49;;;;;;;15.10;8.75;;;;;;;8.05;91.06;94250.78;5077904;28;20043;-82
2024/01/19 03:32:14;;;;;;;15.23;8.30;;;;;;;7.87;91.91;94233.00;5093854;28;20078;-83
2024/01/19 03:34:40;;;;;;;16.55;8.63;;;;;;;7.28;92.15;94133.84;5095359;28;20118;-83
2024/01/19 03:37:06;;;;;;;21.10;8.93;;;;;;;7.22;91.50;94174.50;5092044;28;20469;-88
2024/01/19 03:39:32;;;;;;;15.30;8.20;;;;;;;7.94;92.66;94256.44;5078318;28;20048;-87
2024/01/19 03:41:58;;;;;;;16.45;8.57;;;;;;;7.79;92.30;94232.81;5102868;28;20047;-88
2024/01/19 03:44:24;;;;;;;13.82;9.00;;;;;;;7.42;91.64;94184.09;5095911;28;20047;-88
2024/01/19 03:46:50;;;;;;;19.52;8.60;;;;;;;7.68;91.67;94238.22;5068015;28;20424;-88
2024/01/19 03:49:16;;;;;;;15.07;8.60;;;;;;;7.81;91.56;94259.72;5057792;28;20056;-88
2024/01/19 03:52:16;;;;;;;13.43;8.30;;;;;;;7.83;91.67;94253.13;5057607;28;20075;-88
2024/01/19 03:54:41;;;;;;;13.75;7.72;;;;;;;7.36;90.56;94220.28;5033612;28;20033;-88
2024/01/19 03:57:08;;;;;;;10.93;7.40;;;;;;;7.67;91.05;94272.78;5065833;28;20063;-88
2024/01/19 03:59:34;;;;;;;14.57;7.68;;;;;;;7.10;91.47;94183.81;5050744;28;20078;-88
2024/01/19 04:01:59;;;;;;;14.43;7.90;;;;;;;6.92;91.56;94172.09;5057094;28;20563;-88
2024/01/19 04:04:26;;;;;;;16.90;8.20;;;;;;;7.69;91.51;94275.94;5069870;28;20098;-88
2024/01/19 04:06:52;;;;;;;15.18;7.78;;;;;;;7.64;91.57;94283.88;5078260;28;20032;-87
2024/01/19 04:09:18;;;;;;;15.70;7.85;;;;;;;7.26;91.13;94217.72;5060824;28;20087;-87
2024/01/19 04:11:45;;;;;;;17.58;7.60;;;;;;;6.58;91.53;94137.78;5070997;28;20037;-87
2024/01/19 04:14:11;;;;;;;13.20;7.07;;;;;;;7.38;91.79;94248.22;5059256;28;20106;-87
2024/01/19 04:16:38;;;;;;;19.58;8.35;;;;;;;7.64;91.65;94284.69;5061589;28;20052;-88
2024/01/19 04:19:04;;;;;;;10.02;6.63;;;;;;;6.73;91.62;94129.00;5060322;28;20074;-87
2024/01/19 04:21:30;;;;;;;13.40;8.60;;;;;;;7.57;92.41;94284.22;5063025;28;20098;-87
2024/01/19 04:24:02;;;;;;;13.15;7.22;;;;;;;7.54;93.00;94273.44;5076978;28;20475;-87
2024/01/19 04:26:28;;;;;;;10.45;6.82;;;;;;;7.11;92.94;94195.94;5059364;28;20048;-87
2024/01/19 04:28:54;;;;;;;14.07;7.22;;;;;;;7.56;92.25;94258.09;5077812;28;20072;-87
2024/01/19 04:31:19;;;;;;;14.48;6.70;;;;;;;5.38;92.35;93920.56;5059885;28;20048;-85
2024/01/19 04:33:45;;;;;;;12.75;7.50;;;;;;;7.29;92.20;94201.34;5063601;28;20110;-84
2024/01/19 04:36:10;;;;;;;11.02;7.03;;;;;;;7.22;91.91;94211.41;5075090;28;20036;-87
2024/01/19 04:38:36;;;;;;;14.10;7.15;;;;;;;7.58;92.65;94272.59;5080570;28;20052;-87
2024/01/19 04:41:02;;;;;;;12.15;7.32;;;;;;;7.62;92.48;94280.75;5079616;28;20033;-87
2024/01/19 04:43:28;;;;;;;11.95;7.15;;;;;;;6.95;92.19;94182.06;5064371;28;20044;-87
2024/01/19 04:45:53;;;;;;;15.25;6.95;;;;;;;7.56;92.18;94287.91;5078852;28;20054;-88
2024/01/19 04:48:19;;;;;;;12.45;6.57;;;;;;;6.94;92.61;94178.66;5072266;28;20060;-88
2024/01/19 04:50:44;;;;;;;18.20;7.35;;;;;;;7.71;92.47;94289.63;5076379;28;20420;-88
2024/01/19 04:53:10;;;;;;;15.98;7.43;;;;;;;6.85;91.67;94174.25;5075906;28;20054;-88
2024/01/19 04:55:36;;;;;;;13.30;7.43;;;;;;;6.94;92.24;94178.66;5106838;28;20490;-88
2024/01/19 04:58:01;;;;;;;12.60;7.22;;;;;;;6.43;91.54;94093.13;5075445;28;20032;-88
2024/01/19 05:00:27;;;;;;;10.80;6.70;;;;;;;3.76;91.16;93657.94;5102032;28;20035;-88
2024/01/19 05:02:52;;;;;;;15.55;7.50;;;;;;;6.23;91.47;94044.03;5075300;28;20093;-88
2024/01/19 05:05:18;;;;;;;16.90;7.32;;;;;;;6.92;91.79;94187.91;5093655;28;20142;-88
2024/01/19 05:07:43;;;;;;;13.02;7.10;;;;;;;5.09;92.08;93898.66;5072396;28;20040;-88
2024/01/19 05:10:09;;;;;;;9.75;6.68;;;;;;;7.59;91.94;94290.00;5077014;28;20048;-88
2024/01/19 05:12:35;;;;;;;18.58;7.32;;;;;;;6.90;92.37;94171.59;5077121;28;20050;-88
2024/01/19 05:15:01;;;;;;;12.65;7.10;;;;;;;7.39;92.18;94239.25;5085434;28;20079;-88
2024/01/19 05:17:26;;;;;;;15.05;8.27;;;;;;;7.60;92.76;94294.22;5071808;28;20040;-87
2024/01/19 05:19:52;;;;;;;12.52;6.82;;;;;;;7.05;92.05;94195.19;5111533;28;20043;-87
2024/01/19 05:22:18;;;;;;;13.35;7.38;;;;;;;7.28;92.23;94217.44;5102901;28;20101;-86
2024/01/19 05:24:44;;;;;;;13.40;7.68;;;;;;;7.77;92.04;94308.88;5075644;28;20047;-86
2024/01/19 05:27:10;;;;;;;11.00;7.22;;;;;;;7.69;92.37;94289.16;5075227;28;20429;-86
2024/01/19 05:29:37;;;;;;;14.32;7.88;;;;;;;6.02;91.71;94027.56;5037626;28;20114;-86
2024/01/19 05:32:03;;;;;;;15.98;8.88;;;;;;;6.48;91.93;94101.00;5057602;28;20067;-84
2024/01/19 05:34:29;;;;;;;18.52;8.75;;;;;;;7.36;91.65;94251.13;5065943;28;20047;-87
2024/01/19 05:36:54;;;;;;;21.85;11.80;;;;;;;4.68;91.97;93871.75;5080975;28;20090;-87
2024/01/19 05:39:20;;;;;;;34.00;15.15;;;;;;;6.21;91.55;94083.00;5078701;28;20064;-88
2024/01/19 05:41:46;;;;;;;30.38;16.05;;;;;;;6.93;91.20;94227.19;5079622;28;20032;-86
2024/01/19 05:44:11;;;;;;;27.95;15.35;;;;;;;7.09;90.39;94245.53;5085933;28;20039;-86
2024/01/19 05:46:37;;;;;;;32.88;16.42;;;;;;;7.02;90.56;94248.47;5070994;28;20131;-86
2024/01/19 05:49:03;;;;;;;33.20;16.00;;;;;;;5.47;90.52;94054.91;5103125;22;20116;-91
2024/01/19 05:51:32;;;;;;;30.58;15.75;;;;;;;3.45;90.26;93760.22;5109339;27;21040;-91
2024/01/19 05:54:24;;;;;;;34.50;15.32;;;;;;;3.32;91.17;93728.53;5122791;27;20047;-91
2024/01/19 05:59:23;;;;;;;24.08;14.25;;;;;;;7.13;90.76;94278.97;5067476;28;20048;-84
2024/01/19 06:01:48;;;;;;;26.75;13.65;;;;;;;6.92;90.17;94251.97;5045225;28;20362;-84
2024/01/19 06:04:14;;;;;;;24.60;12.35;;;;;;;7.22;90.16;94300.28;5021013;28;20483;-84
2024/01/19 06:06:39;;;;;;;21.90;10.98;;;;;;;7.27;90.92;94339.81;5055908;28;20040;-83
2024/01/19 06:09:05;;;;;;;22.38;12.07;;;;;;;6.74;90.52;94249.16;5052694;28;20051;-83
2024/01/19 06:11:31;;;;;;;19.08;11.18;;;;;;;6.65;91.72;94222.59;5040413;28;20418;-82
2024/01/19 06:14:00;;;;;;;21.08;10.50;;;;;;;6.60;90.85;94233.16;5062988;28;20101;-84
2024/01/19 06:16:25;;;;;;;18.85;10.30;;;;;;;7.26;91.12;94335.59;5039777;28;20040;-83
2024/01/19 06:18:51;;;;;;;20.20;10.30;;;;;;;7.25;91.31;94318.97;5039999;28;20105;-84
2024/01/19 06:21:16;;;;;;;19.20;10.55;;;;;;;5.79;90.96;94094.75;5054462;28;20129;-84
2024/01/19 06:23:42;;;;;;;20.35;10.15;;;;;;;7.15;91.14;94334.88;5053885;28;20029;-83
2024/01/19 06:26:10;;;;;;;16.02;8.85;;;;;;;6.00;91.20;94139.44;5049309;28;20032;-84
2024/01/19 06:28:35;;;;;;;19.38;10.32;;;;;;;6.91;91.28;94268.03;5065703;28;20044;-85
2024/01/19 06:31:03;;;;;;;22.52;9.32;;;;;;;6.98;91.21;94286.97;5047578;28;20071;-84
2024/01/19 06:33:29;;;;;;;58.90;29.13;;;;;;;7.17;91.03;94309.00;5055396;28;20161;-85
2024/01/19 06:35:55;;;;;;;29.75;13.80;;;;;;;7.31;91.04;94333.75;5054454;28;20225;-85
2024/01/19 06:38:20;;;;;;;22.73;9.93;;;;;;;6.78;91.16;94281.81;5031390;28;20543;-84
2024/01/19 06:40:46;;;;;;;15.65;9.00;;;;;;;7.05;91.04;94340.19;5036521;28;20043;-85
2024/01/19 06:43:12;;;;;;;24.33;9.35;;;;;;;7.15;91.31;94347.28;5033574;28;20055;-84
2024/01/19 06:45:37;;;;;;;17.58;9.13;;;;;;;7.28;90.97;94365.91;5033302;28;20626;-84
2024/01/19 06:48:03;;;;;;;20.30;9.90;;;;;;;6.76;90.80;94278.66;5052250;28;20387;-84
2024/01/19 06:50:29;;;;;;;18.98;9.90;;;;;;;7.47;90.61;94375.84;5080683;28;20413;-85
2024/01/19 06:52:55;;;;;;;18.33;9.80;;;;;;;7.27;90.88;94331.91;5072155;28;20059;-84
2024/01/19 06:55:20;;;;;;;14.73;8.05;;;;;;;7.45;90.92;94357.66;5050043;28;20062;-85
2024/01/19 06:57:46;;;;;;;19.52;9.40;;;;;;;6.68;91.04;94282.66;5039292;28;20060;-84
2024/01/19 07:00:12;;;;;;;21.35;10.13;;;;;;;7.00;91.10;94320.97;5049130;28;20049;-85
2024/01/19 07:02:38;;;;;;;27.08;10.68;;;;;;;6.48;90.29;94199.25;5049817;28;20040;-83
2024/01/19 07:05:04;;;;;;;26.60;11.40;;;;;;;7.46;90.32;94343.41;5036282;28;20111;-83
2024/01/19 07:07:29;;;;;;;26.83;13.43;;;;;;;6.38;90.41;94159.00;5060362;28;20036;-83
2024/01/19 07:09:55;;;;;;;30.38;12.98;;;;;;;7.87;90.44;94395.88;5065399;28;20051;-84
2024/01/19 07:12:20;;;;;;;19.15;11.30;;;;;;;7.01;90.19;94283.03;5057226;28;20052;-85
2024/01/19 07:15:00;;;;;;;17.90;9.00;;;;;;;5.51;89.89;94058.53;5069316;28;20075;-88
2024/01/19 07:17:26;;;;;;;18.98;10.32;;;;;;;6.51;91.33;94203.16;5065797;28;20028;-88
2024/01/19 07:19:54;;;;;;;22.65;11.25;;;;;;;6.45;90.69;94193.72;5059581;28;20046;-88
2024/01/19 07:22:20;;;;;;;15.55;8.65;;;;;;;7.06;90.25;94296.97;5061892;28;20331;-89
2024/01/19 07:24:47;;;;;;;16.83;8.65;;;;;;;7.73;90.34;94364.84;5048588;28;20072;-87
2024/01/19 07:27:23;;;;;;;24.27;9.18;;;;;;;6.64;90.32;94180.72;5059372;28;20504;-87
2024/01/19 07:29:48;;;;;;;15.45;9.13;;;;;;;6.02;90.11;94106.53;5055214;28;20507;-87
2024/01/19 07:32:14;;;;;;;16.08;8.50;;;;;;;6.61;89.71;94186.53;5073284;28;20100;-84
2024/01/19 07:34:39;;;;;;;16.10;9.02;;;;;;;7.81;89.80;94331.00;5059338;28;20051;-83
2024/01/19 07:37:06;;;;;;;20.90;8.88;;;;;;;6.77;89.47;94183.53;5069180;28;20123;-83
2024/01/19 07:39:31;;;;;;;18.92;10.00;;;;;;;6.79;89.57;94180.63;5049823;28;20078;-82
2024/01/19 07:41:58;;;;;;;17.27;9.45;;;;;;;6.79;89.80;94156.91;5056073;28;20028;-85
2024/01/19 07:44:23;;;;;;;19.40;11.50;;;;;;;6.39;89.53;94094.75;5051184;28;20048;-85
2024/01/19 07:46:49;;;;;;;38.80;19.42;;;;;;;6.67;89.61;94144.06;5051785;28;20043;-86
2024/01/19 07:49:20;;;;;;;64.10;37.17;;;;;;;7.53;89.86;94287.69;5058356;28;20151;-86
2024/01/19 07:51:47;;;;;;;63.58;37.50;;;;;;;5.99;89.54;94080.75;5075414;28;20511;-84
2024/01/19 07:54:12;;;;;;;58.03;32.40;;;;;;;6.65;89.18;94151.44;5051347;28;20040;-82
2024/01/19 07:56:40;;;;;;;60.38;34.92;;;;;;;6.82;88.73;94178.22;5063183;28;20036;-82
2024/01/19 07:59:07;;;;;;;55.15;33.08;;;;;;;6.16;88.69;94060.13;5051771;28;20084;-83
2024/01/19 08:01:32;;;;;;;55.38;31.23;;;;;;;7.94;89.18;94339.06;5057416;28;20367;-85
2024/01/19 08:03:58;;;;;;;57.22;33.97;;;;;;;7.59;89.05;94278.66;5050241;28;20118;-84
2024/01/19 08:06:24;;;;;;;59.85;32.50;;;;;;;7.09;88.87;94177.00;5068143;28;20048;-84
2024/01/19 08:08:49;;;;;;;51.97;28.38;;;;;;;7.77;89.06;94259.53;5053359;28;20066;-84
2024/01/19 08:11:15;;;;;;;48.90;26.55;;;;;;;6.40;88.89;94057.59;5035479;28;20037;-84
2024/01/19 08:13:41;;;;;;;49.88;28.50;;;;;;;7.31;88.14;94204.50;5017671;28;20041;-84
2024/01/19 08:16:07;;;;;;;53.90;29.13;;;;;;;6.85;88.17;94117.06;5059366;28;20055;-84
2024/01/19 08:18:34;;;;;;;44.33;26.15;;;;;;;7.94;87.86;94274.91;5035966;28;20063;-84
2024/01/19 08:21:03;;;;;;;44.28;26.63;;;;;;;7.21;87.68;94167.66;5066491;28;20050;-83
2024/01/19 08:23:34;;;;;;;48.92;27.15;;;;;;;7.99;88.13;94280.16;5060579;28;20032;-86
2024/01/19 08:26:28;;;;;;;44.45;26.85;;;;;;;8.26;88.11;94330.59;5067942;28;20032;-89
2024/01/19 08:29:03;;;;;;;50.05;25.85;;;;;;;7.31;87.20;94164.16;5057648;28;20043;-89
2024/01/19 08:31:30;;;;;;;48.42;25.95;;;;;;;7.68;87.93;94211.81;5062057;28;20057;-86
2024/01/19 08:33:59;;;;;;;52.63;26.60;;;;;;;8.40;88.05;94305.13;5059180;28;20537;-84
2024/01/19 08:36:31;;;;;;;40.33;25.25;;;;;;;8.34;87.04;94290.41;5053562;28;20048;-86
2024/01/19 08:38:57;;;;;;;44.40;26.85;;;;;;;7.35;87.00;94120.31;5066843;28;20044;-82
2024/01/19 08:41:26;;;;;;;38.90;22.23;;;;;;;8.11;85.62;94251.53;5068326;28;20710;-83
2024/01/19 08:43:54;;;;;;;40.05;23.33;;;;;;;9.46;85.31;94455.72;5066803;28;20044;-88
2024/01/19 08:46:19;;;;;;;26.83;13.02;;;;;;;8.59;85.07;94317.63;5066459;28;20047;-84
2024/01/19 08:48:47;;;;;;;29.77;16.20;;;;;;;8.65;86.15;94319.13;5061804;28;20045;-83
2024/01/19 08:51:20;;;;;;;26.48;14.27;;;;;;;9.48;85.89;94409.38;5045081;28;20106;-82
2024/01/19 08:53:46;;;;;;;26.90;14.52;;;;;;;8.92;85.70;94335.22;5052527;28;20066;-85
2024/01/19 08:56:17;;;;;;;21.80;13.85;;;;;;;9.73;85.85;94412.75;5058398;28;20043;-83
2024/01/19 08:58:43;;;;;;;;;;;;;;;9.84;85.70;94432.72;5045629;28;20087;-85
2024/01/19 09:01:16;;;;;;;21.80;11.68;;;;;;;9.31;85.74;94331.56;5068441;28;19948;-82
2024/01/19 09:03:41;;;;;;;22.55;7.28;;;;;;;9.19;84.13;94335.41;5040388;28;20033;-86
2024/01/19 09:06:07;;;;;;;15.63;8.15;;;;;;;9.19;83.27;94298.34;5039774;28;20061;-84
2024/01/19 09:08:33;;;;;;;15.63;7.07;;;;;;;10.10;82.79;94412.72;5064029;28;20040;-83
2024/01/19 09:10:58;;;;;;;15.07;6.85;;;;;;;9.79;83.20;94369.22;5028260;28;20059;-82
2024/01/19 09:13:24;;;;;;;15.60;6.43;;;;;;;10.20;82.28;94430.38;5044396;28;20063;-84
2024/01/19 09:15:53;;;;;;;15.48;6.25;;;;;;;9.99;81.83;94379.53;5050799;28;20033;-83
2024/01/19 09:18:19;;;;;;;14.00;6.65;;;;;;;9.64;81.63;94306.72;5049580;28;20512;-83
2024/01/19 09:20:45;;;;;;;19.63;6.68;;;;;;;10.22;80.98;94340.78;5061445;28;20036;-83
2024/01/19 09:23:11;;;;;;;15.40;5.93;;;;;;;10.16;79.66;94358.56;5066636;28;20419;-82
2024/01/19 09:25:39;;;;;;;11.07;5.40;;;;;;;9.94;80.87;94324.75;5057100;28;20088;-83
2024/01/19 09:28:05;;;;;;;19.85;7.20;;;;;;;10.56;81.33;94412.81;5041262;28;20044;-86
2024/01/19 09:30:31;;;;;;;22.52;6.53;;;;;;;9.99;82.00;94314.06;5071230;28;20061;-84
2024/01/19 09:32:56;;;;;;;13.73;6.63;;;;;;;9.53;82.53;94236.47;5047536;28;20050;-84
2024/01/19 09:35:23;;;;;;;12.43;7.22;;;;;;;10.47;81.89;94358.88;5066575;28;20045;-87
2024/01/19 09:37:49;;;;;;;24.85;6.82;;;;;;;10.12;80.66;94309.13;5054154;28;20043;-87
2024/01/19 09:40:20;;;;;;;13.35;5.82;;;;;;;10.28;81.28;94335.09;5056449;28;20029;-87
2024/01/19 09:42:58;;;;;;;;;;;;;;;10.80;80.47;94396.75;5056098;28;20120;-83
2024/01/19 09:45:26;;;;;;;18.38;9.10;;;;;;;9.82;79.08;94245.00;5070308;28;20016;-85
2024/01/19 09:48:16;;;;;;;20.80;9.07;;;;;;;10.78;80.01;94383.78;5085501;28;20036;-84
2024/01/19 09:50:46;;;;;;;25.33;10.00;;;;;;;10.58;79.72;94354.19;5064532;28;20982;-81
2024/01/19 09:53:18;;;;;;;21.75;8.82;;;;;;;10.80;78.80;94383.47;5023671;28;20047;-83
2024/01/19 09:55:45;;;;;;;;;;;;;;;10.76;79.77;94395.75;5056844;28;20451;-84
2024/01/19 09:58:11;;;;;;;26.00;10.40;;;;;;;10.77;78.83;94398.09;5056168;28;20243;-84
2024/01/19 10:00:36;;;;;;;38.63;11.77;;;;;;;10.90;78.29;94398.44;5064623;28;20381;-82
2024/01/19 10:03:04;;;;;;;28.55;11.13;;;;;;;10.29;78.20;94294.28;5028723;28;20124;-85
2024/01/19 10:05:32;;;;;;;33.83;13.23;;;;;;;11.01;78.16;94371.41;5052881;28;20045;-91
2024/01/19 10:07:59;;;;;;;34.35;11.85;;;;;;;10.86;78.56;94318.66;5062403;28;20101;-82
2024/01/19 10:10:25;;;;;;;35.15;12.88;;;;;;;10.33;78.88;94231.66;5064177;28;20049;-83
2024/01/19 10:12:54;;;;;;;30.83;11.05;;;;;;;10.91;78.36;94317.78;5050513;28;20582;-85
2024/01/19 10:15:20;;;;;;;28.50;11.50;;;;;;;11.10;77.24;94318.44;5057558;28;20040;-87
2024/01/19 10:17:46;;;;;;;22.30;10.88;;;;;;;11.02;76.91;94309.31;5054171;28;20047;-85
2024/01/19 10:20:14;;;;;;;31.63;11.88;;;;;;;11.36;76.78;94364.59;5052585;28;20142;-86
2024/01/19 10:22:39;;;;;;;34.55;15.90;;;;;;;11.28;78.26;94320.19;5054136;28;20039;-82
2024/01/19 10:25:10;;;;;;;29.75;17.13;;;;;;;11.40;78.51;94356.81;5042534;28;20385;-82
2024/01/19 10:27:53;;;;;;;42.38;17.48;;;;;;;11.45;78.13;94348.72;5076234;28;20079;-83
2024/01/19 10:30:29;;;;;;;38.95;18.45;;;;;;;11.15;78.88;94283.81;5068284;28;20079;-86
2024/01/19 10:33:08;;;;;;;38.45;18.88;;;;;;;10.68;77.70;94218.78;5051217;28;20255;-82
2024/01/19 10:35:36;;;;;;;44.08;19.67;;;;;;;11.14;78.06;94266.31;5046820;28;20056;-82
2024/01/19 10:38:06;;;;;;;38.30;20.33;;;;;;;11.79;78.20;94322.53;5073886;28;20221;-82
2024/01/19 10:40:35;;;;;;;39.53;20.00;;;;;;;11.66;77.04;94272.88;5079303;28;20505;-84
2024/01/19 10:43:01;;;;;;;40.95;18.17;;;;;;;12.54;78.66;94331.56;5077257;28;20052;-81
2024/01/19 10:45:28;;;;;;;33.25;16.27;;;;;;;13.01;79.75;94330.84;5073102;28;20040;-81
2024/01/19 10:47:56;;;;;;;27.13;14.10;;;;;;;13.19;75.98;94277.66;5065029;28;20067;-81
2024/01/19 10:50:28;;;;;;;27.83;12.55;;;;;;;13.47;76.54;94276.28;5069246;28;20533;-82
2024/01/19 10:52:55;;;;;;;28.25;10.52;;;;;;;14.15;75.95;94301.31;5055265;28;20296;-83
2024/01/19 10:55:29;;;;;;;17.80;9.68;;;;;;;14.46;73.03;94301.91;5063418;28;20095;-82
2024/01/19 10:58:04;;;;;;;26.83;9.27;;;;;;;14.62;71.66;94304.84;5055574;28;20175;-84
2024/01/19 11:00:30;;;;;;;19.63;9.20;;;;;;;14.23;69.06;94245.31;5065923;28;20590;-83
2024/01/19 11:02:58;;;;;;;20.33;9.40;;;;;;;13.72;68.01;94194.78;5047953;28;20211;-82
2024/01/19 11:05:24;;;;;;;20.42;8.82;;;;;;;12.42;69.37;94052.16;5050959;28;20051;-81
2024/01/19 11:07:58;;;;;;;19.10;8.90;;;;;;;13.99;69.29;94301.03;5037433;28;20048;-82
2024/01/19 11:10:27;;;;;;;19.08;8.80;;;;;;;13.96;70.51;94306.22;5048474;28;20043;-81
2024/01/19 11:12:56;;;;;;;17.02;8.63;;;;;;;13.74;71.83;94270.63;5042002;28;20444;-82
2024/01/19 11:15:34;;;;;;;18.20;9.55;;;;;;;13.88;74.05;94297.13;5050583;28;20047;-82
2024/01/19 11:18:01;;;;;;;24.02;10.02;;;;;;;13.61;75.10;94255.59;5064930;28;20162;-80
2024/01/19 11:20:31;;;;;;;18.95;9.50;;;;;;;13.79;72.69;94270.50;5047597;28;20036;-82
2024/01/19 11:23:00;;;;;;;20.20;9.82;;;;;;;13.88;73.75;94292.56;5041526;28;20045;-83
2024/01/19 11:25:59;;;;;;;16.95;8.85;;;;;;;13.82;72.99;94285.81;5053792;28;20091;-79
2024/01/19 11:28:51;;;;;;;17.10;7.78;;;;;;;13.64;73.04;94276.28;5036579;28;20044;-79
2024/01/19 11:31:26;;;;;;;28.27;8.02;;;;;;;13.44;70.88;94263.56;5037684;28;20045;-81